Terminal Aerodrome Forecast
Issued by NWS

Home | Current Version | Previous Version | Text Only | Print | Product List | Glossary On
Versions: 1 2 3 4 5 6 7 8 9 10 11 12 13 14
574
FTUS42 KJAX 240520
TAFCRG
TAF
KCRG 240520Z 2406/2506 20004KT P6SM SCT250
     FM241300 23007KT P6SM SCT035
     FM241800 18011KT P6SM FEW040=

USA.gov is the U.S. government's official web portal to all federal, state and local government web resources and services.